sensor_id;sensor_type;location;lat;lon;timestamp;pressure;altitude;pressure_sealevel;temperature;humidity
9091;BME280;4581;42.416;25.598;2022-11-15T00:00:51;99124.53;;;9.93;100.00
9091;BME280;4581;42.416;25.598;2022-11-15T00:03:20;99115.13;;;9.97;100.00
9091;BME280;4581;42.416;25.598;2022-11-15T00:05:48;99123.53;;;9.94;100.00
9091;BME280;4581;42.416;25.598;2022-11-15T00:08:15;99114.59;;;9.94;100.00
9091;BME280;4581;42.416;25.598;2022-11-15T00:10:42;99116.44;;;9.93;100.00
9091;BME280;4581;42.416;25.598;2022-11-15T00:13:11;99107.66;;;9.91;100.00
9091;BME280;4581;42.416;25.598;2022-11-15T00:15:40;99120.50;;;9.97;100.00
9091;BME280;4581;42.416;25.598;2022-11-15T00:18:13;99108.03;;;9.96;100.00
9091;BME280;4581;42.416;25.598;2022-11-15T00:20:40;99111.97;;;10.02;100.00
9091;BME280;4581;42.416;25.598;2022-11-15T00:23:07;99107.72;;;9.99;100.00
9091;BME280;4581;42.416;25.598;2022-11-15T00:25:33;99111.59;;;9.97;100.00
9091;BME280;4581;42.416;25.598;2022-11-15T00:28:00;99098.66;;;10.00;100.00
9091;BME280;4581;42.416;25.598;2022-11-15T00:30:28;99104.03;;;10.00;100.00
9091;BME280;4581;42.416;25.598;2022-11-15T00:32:55;99086.16;;;9.99;100.00
9091;BME280;4581;42.416;25.598;2022-11-15T00:35:22;99097.97;;;9.98;100.00
9091;BME280;4581;42.416;25.598;2022-11-15T00:37:48;99088.81;;;9.91;100.00
9091;BME280;4581;42.416;25.598;2022-11-15T00:40:15;99091.56;;;9.99;100.00
9091;BME280;4581;42.416;25.598;2022-11-15T00:42:42;99087.50;;;9.95;100.00
9091;BME280;4581;42.416;25.598;2022-11-15T00:45:09;99080.97;;;9.98;100.00
9091;BME280;4581;42.416;25.598;2022-11-15T00:47:36;99084.78;;;9.95;100.00
9091;BME280;4581;42.416;25.598;2022-11-15T00:50:03;99078.78;;;10.01;100.00
9091;BME280;4581;42.416;25.598;2022-11-15T00:52:30;99073.03;;;9.96;100.00
9091;BME280;4581;42.416;25.598;2022-11-15T00:54:57;99075.25;;;10.01;100.00
9091;BME280;4581;42.416;25.598;2022-11-15T00:57:23;99067.25;;;9.91;100.00
9091;BME280;4581;42.416;25.598;2022-11-15T00:59:50;99071.44;;;9.85;100.00
9091;BME280;4581;42.416;25.598;2022-11-15T01:02:16;99064.56;;;9.91;100.00
9091;BME280;4581;42.416;25.598;2022-11-15T01:04:43;99066.44;;;9.91;100.00
9091;BME280;4581;42.416;25.598;2022-11-15T01:07:10;99065.59;;;9.90;100.00
9091;BME280;4581;42.416;25.598;2022-11-15T01:09:36;99062.19;;;9.88;100.00
9091;BME280;4581;42.416;25.598;2022-11-15T01:12:03;99062.19;;;9.88;100.00
9091;BME280;4581;42.416;25.598;2022-11-15T01:14:30;99054.59;;;9.83;100.00
9091;BME280;4581;42.416;25.598;2022-11-15T01:16:57;99049.69;;;9.79;100.00
9091;BME280;4581;42.416;25.598;2022-11-15T01:19:23;99050.91;;;9.84;100.00
9091;BME280;4581;42.416;25.598;2022-11-15T01:21:50;99045.53;;;9.84;100.00
9091;BME280;4581;42.416;25.598;2022-11-15T01:24:17;99040.59;;;9.80;100.00
9091;BME280;4581;42.416;25.598;2022-11-15T01:26:44;99050.75;;;9.86;100.00
9091;BME280;4581;42.416;25.598;2022-11-15T01:29:10;99049.44;;;9.90;100.00
9091;BME280;4581;42.416;25.598;2022-11-15T01:31:37;99048.34;;;9.83;100.00
9091;BME280;4581;42.416;25.598;2022-11-15T01:34:04;99053.75;;;9.83;100.00
9091;BME280;4581;42.416;25.598;2022-11-15T01:36:31;99048.91;;;9.86;100.00
9091;BME280;4581;42.416;25.598;2022-11-15T01:38:58;99037.28;;;9.86;100.00
9091;BME280;4581;42.416;25.598;2022-11-15T01:41:30;99051.09;;;9.91;100.00
9091;BME280;4581;42.416;25.598;2022-11-15T01:47:10;99039.38;;;10.00;100.00
9091;BME280;4581;42.416;25.598;2022-11-15T01:49:43;99044.41;;;9.95;100.00
9091;BME280;4581;42.416;25.598;2022-11-15T01:52:16;99042.03;;;9.92;100.00
9091;BME280;4581;42.416;25.598;2022-11-15T01:54:44;99042.56;;;9.96;100.00
9091;BME280;4581;42.416;25.598;2022-11-15T01:57:12;99041.69;;;9.95;100.00
9091;BME280;4581;42.416;25.598;2022-11-15T01:59:42;99034.66;;;9.94;100.00
9091;BME280;4581;42.416;25.598;2022-11-15T02:02:09;99040.03;;;9.94;100.00
9091;BME280;4581;42.416;25.598;2022-11-15T02:04:45;99034.66;;;9.94;100.00
9091;BME280;4581;42.416;25.598;2022-11-15T02:07:16;99024.34;;;9.90;100.00
9091;BME280;4581;42.416;25.598;2022-11-15T02:09:44;99034.84;;;10.01;100.00
9091;BME280;4581;42.416;25.598;2022-11-15T02:12:15;99030.78;;;9.97;100.00
9091;BME280;4581;42.416;25.598;2022-11-15T02:14:44;99034.19;;;9.99;100.00
9091;BME280;4581;42.416;25.598;2022-11-15T02:17:33;99024.91;;;10.01;100.00
9091;BME280;4581;42.416;25.598;2022-11-15T02:22:46;99024.06;;;10.01;100.00
9091;BME280;4581;42.416;25.598;2022-11-15T02:31:20;99019.88;;;9.98;100.00
9091;BME280;4581;42.416;25.598;2022-11-15T02:34:03;99020.16;;;9.95;100.00
9091;BME280;4581;42.416;25.598;2022-11-15T02:36:42;99025.41;;;9.97;100.00
9091;BME280;4581;42.416;25.598;2022-11-15T02:39:23;99029.94;;;9.96;100.00
9091;BME280;4581;42.416;25.598;2022-11-15T02:42:07;99025.06;;;10.00;100.00
9091;BME280;4581;42.416;25.598;2022-11-15T02:44:56;99023.44;;;10.07;100.00
9091;BME280;4581;42.416;25.598;2022-11-15T02:47:26;99017.00;;;10.00;100.00
9091;BME280;4581;42.416;25.598;2022-11-15T02:49:57;99024.91;;;10.01;100.00
9091;BME280;4581;42.416;25.598;2022-11-15T02:52:25;99023.56;;;9.97;100.00
9091;BME280;4581;42.416;25.598;2022-11-15T02:54:57;99015.78;;;9.94;100.00
9091;BME280;4581;42.416;25.598;2022-11-15T02:57:39;99028.78;;;9.99;100.00
9091;BME280;4581;42.416;25.598;2022-11-15T03:00:09;99023.41;;;9.99;100.00
9091;BME280;4581;42.416;25.598;2022-11-15T03:11:11;99016.66;;;9.95;100.00
9091;BME280;4581;42.416;25.598;2022-11-15T03:14:02;99012.25;;;9.94;100.00
9091;BME280;4581;42.416;25.598;2022-11-15T03:16:38;99007.72;;;9.94;100.00
9091;BME280;4581;42.416;25.598;2022-11-15T03:20:08;99002.53;;;10.01;100.00
9091;BME280;4581;42.416;25.598;2022-11-15T03:22:18;99005.53;;;9.98;100.00
9091;BME280;4581;42.416;25.598;2022-11-15T03:24:52;98998.13;;;10.00;100.00
9091;BME280;4581;42.416;25.598;2022-11-15T03:27:22;99004.69;;;9.97;100.00
9091;BME280;4581;42.416;25.598;2022-11-15T03:29:54;99004.00;;;9.95;100.00
9091;BME280;4581;42.416;25.598;2022-11-15T03:32:29;98999.16;;;9.99;100.00
9091;BME280;4581;42.416;25.598;2022-11-15T03:35:01;98995.63;;;9.98;100.00
9091;BME280;4581;42.416;25.598;2022-11-15T03:40:24;98993.56;;;9.92;100.00
9091;BME280;4581;42.416;25.598;2022-11-15T03:43:06;98991.03;;;9.91;100.00
9091;BME280;4581;42.416;25.598;2022-11-15T03:45:44;98981.25;;;9.90;100.00
9091;BME280;4581;42.416;25.598;2022-11-15T03:48:13;98982.25;;;9.88;100.00
9091;BME280;4581;42.416;25.598;2022-11-15T03:50:43;98987.66;;;9.88;100.00
9091;BME280;4581;42.416;25.598;2022-11-15T03:53:12;98982.09;;;9.90;100.00
9091;BME280;4581;42.416;25.598;2022-11-15T03:55:38;98984.16;;;9.96;100.00
9091;BME280;4581;42.416;25.598;2022-11-15T03:58:05;98978.56;;;9.90;100.00
9091;BME280;4581;42.416;25.598;2022-11-15T04:00:32;98982.63;;;9.94;100.00
9091;BME280;4581;42.416;25.598;2022-11-15T04:02:59;98980.09;;;9.92;100.00
9091;BME280;4581;42.416;25.598;2022-11-15T04:05:25;98980.41;;;9.89;100.00
9091;BME280;4581;42.416;25.598;2022-11-15T04:07:52;98986.31;;;9.93;100.00
9091;BME280;4581;42.416;25.598;2022-11-15T04:10:19;98972.00;;;9.92;100.00
9091;BME280;4581;42.416;25.598;2022-11-15T04:12:46;98979.09;;;9.93;100.00
9091;BME280;4581;42.416;25.598;2022-11-15T04:15:19;98971.63;;;9.87;100.00
9091;BME280;4581;42.416;25.598;2022-11-15T04:17:48;98973.34;;;9.88;100.00
9091;BME280;4581;42.416;25.598;2022-11-15T04:20:21;98975.84;;;9.81;100.00
9091;BME280;4581;42.416;25.598;2022-11-15T04:23:12;98972.63;;;9.78;100.00
9091;BME280;4581;42.416;25.598;2022-11-15T04:26:11;98973.41;;;9.70;100.00
9091;BME280;4581;42.416;25.598;2022-11-15T04:28:39;98970.88;;;9.69;100.00
9091;BME280;4581;42.416;25.598;2022-11-15T04:31:25;98972.34;;;9.63;100.00
9091;BME280;4581;42.416;25.598;2022-11-15T04:33:53;98970.50;;;9.64;100.00
9091;BME280;4581;42.416;25.598;2022-11-15T04:36:20;98972.03;;;9.66;100.00
9091;BME280;4581;42.416;25.598;2022-11-15T04:39:06;98968.19;;;9.69;100.00
9091;BME280;4581;42.416;25.598;2022-11-15T04:41:32;98964.75;;;9.59;100.00
9091;BME280;4581;42.416;25.598;2022-11-15T04:43:59;98972.53;;;9.62;100.00
9091;BME280;4581;42.416;25.598;2022-11-15T04:46:26;98964.75;;;9.59;100.00
9091;BME280;4581;42.416;25.598;2022-11-15T04:48:53;98972.66;;;9.60;100.00
9091;BME280;4581;42.416;25.598;2022-11-15T04:51:24;98973.84;;;9.58;100.00
9091;BME280;4581;42.416;25.598;2022-11-15T04:53:50;98968.44;;;9.58;100.00
9091;BME280;4581;42.416;25.598;2022-11-15T04:56:17;98962.38;;;9.56;100.00
9091;BME280;4581;42.416;25.598;2022-11-15T04:58:44;98961.38;;;9.57;100.00
9091;BME280;4581;42.416;25.598;2022-11-15T05:01:13;98955.63;;;9.52;100.00
9091;BME280;4581;42.416;25.598;2022-11-15T05:03:44;98949.56;;;9.50;100.00
9091;BME280;4581;42.416;25.598;2022-11-15T05:06:29;98953.09;;;9.50;100.00
9091;BME280;4581;42.416;25.598;2022-11-15T05:08:57;98962.69;;;9.53;100.00
9091;BME280;4581;42.416;25.598;2022-11-15T05:11:24;98956.63;;;9.51;100.00
9091;BME280;4581;42.416;25.598;2022-11-15T05:13:51;98965.38;;;9.53;100.00
9091;BME280;4581;42.416;25.598;2022-11-15T05:16:17;98963.69;;;9.52;100.00
9091;BME280;4581;42.416;25.598;2022-11-15T05:18:44;98942.28;;;9.42;100.00
9091;BME280;4581;42.416;25.598;2022-11-15T05:21:13;98961.53;;;9.55;100.00
9091;BME280;4581;42.416;25.598;2022-11-15T05:23:40;98965.84;;;9.48;100.00
9091;BME280;4581;42.416;25.598;2022-11-15T05:26:08;98950.03;;;9.45;100.00
9091;BME280;4581;42.416;25.598;2022-11-15T05:28:36;98969.00;;;9.44;100.00
9091;BME280;4581;42.416;25.598;2022-11-15T05:31:08;98960.28;;;9.42;100.00
9091;BME280;4581;42.416;25.598;2022-11-15T05:33:39;98964.47;;;9.44;100.00
9091;BME280;4581;42.416;25.598;2022-11-15T05:38:54;98966.25;;;9.35;100.00
9091;BME280;4581;42.416;25.598;2022-11-15T05:41:26;98964.94;;;9.39;100.00
9091;BME280;4581;42.416;25.598;2022-11-15T05:43:57;98975.09;;;9.46;100.00
9091;BME280;4581;42.416;25.598;2022-11-15T05:46:24;98979.78;;;9.44;100.00
9091;BME280;4581;42.416;25.598;2022-11-15T05:48:52;98981.78;;;9.42;100.00
9091;BME280;4581;42.416;25.598;2022-11-15T05:51:21;98979.63;;;9.45;100.00
9091;BME280;4581;42.416;25.598;2022-11-15T05:53:52;98984.16;;;9.45;100.00
9091;BME280;4581;42.416;25.598;2022-11-15T05:56:19;98991.56;;;9.43;100.00
9091;BME280;4581;42.416;25.598;2022-11-15T05:58:46;98984.50;;;9.42;100.00
9091;BME280;4581;42.416;25.598;2022-11-15T06:01:13;98982.66;;;9.42;100.00
9091;BME280;4581;42.416;25.598;2022-11-15T06:03:39;98987.38;;;9.48;100.00
9091;BME280;4581;42.416;25.598;2022-11-15T06:06:06;98985.88;;;9.46;100.00
9091;BME280;4581;42.416;25.598;2022-11-15T06:08:40;98991.25;;;9.46;100.00
9091;BME280;4581;42.416;25.598;2022-11-15T06:11:07;98986.72;;;9.46;100.00
9091;BME280;4581;42.416;25.598;2022-11-15T06:13:34;98998.53;;;9.53;100.00
9091;BME280;4581;42.416;25.598;2022-11-15T06:16:01;98998.22;;;9.56;100.00
9091;BME280;4581;42.416;25.598;2022-11-15T06:18:28;98995.97;;;9.52;100.00
9091;BME280;4581;42.416;25.598;2022-11-15T06:20:58;98986.91;;;9.53;100.00
9091;BME280;4581;42.416;25.598;2022-11-15T06:23:26;98994.66;;;9.56;100.00
9091;BME280;4581;42.416;25.598;2022-11-15T06:25:57;98995.03;;;9.61;100.00
9091;BME280;4581;42.416;25.598;2022-11-15T06:28:24;98993.66;;;9.57;100.00
9091;BME280;4581;42.416;25.598;2022-11-15T06:30:51;98997.59;;;9.62;100.00
9091;BME280;4581;42.416;25.598;2022-11-15T06:33:18;99002.66;;;9.65;100.00
9091;BME280;4581;42.416;25.598;2022-11-15T06:35:45;99002.00;;;9.71;100.00
9091;BME280;4581;42.416;25.598;2022-11-15T06:38:12;98996.16;;;9.76;100.00
9091;BME280;4581;42.416;25.598;2022-11-15T06:40:39;99008.75;;;9.75;100.00
9091;BME280;4581;42.416;25.598;2022-11-15T06:43:06;99004.22;;;9.76;100.00
9091;BME280;4581;42.416;25.598;2022-11-15T06:45:33;99006.59;;;9.79;100.00
9091;BME280;4581;42.416;25.598;2022-11-15T06:48:00;99002.22;;;9.78;100.00
9091;BME280;4581;42.416;25.598;2022-11-15T06:50:26;98999.88;;;9.83;100.00
9091;BME280;4581;42.416;25.598;2022-11-15T06:52:53;98997.19;;;9.83;100.00
9091;BME280;4581;42.416;25.598;2022-11-15T06:55:21;98997.56;;;9.88;100.00
9091;BME280;4581;42.416;25.598;2022-11-15T06:57:51;99013.41;;;9.91;100.00
9091;BME280;4581;42.416;25.598;2022-11-15T07:00:20;99005.31;;;9.91;100.00
9091;BME280;4581;42.416;25.598;2022-11-15T07:02:47;99004.31;;;9.92;100.00
9091;BME280;4581;42.416;25.598;2022-11-15T07:05:14;99006.03;;;9.93;100.00
9091;BME280;4581;42.416;25.598;2022-11-15T07:07:42;99000.59;;;9.85;100.00
9091;BME280;4581;42.416;25.598;2022-11-15T07:10:08;98998.09;;;9.92;100.00
9091;BME280;4581;42.416;25.598;2022-11-15T07:12:35;98999.47;;;9.96;100.00
9091;BME280;4581;42.416;25.598;2022-11-15T07:15:02;99002.34;;;9.94;100.00
9091;BME280;4581;42.416;25.598;2022-11-15T07:17:29;98996.28;;;10.00;100.00
9091;BME280;4581;42.416;25.598;2022-11-15T07:19:55;98997.13;;;10.01;100.00
9091;BME280;4581;42.416;25.598;2022-11-15T07:22:22;98994.78;;;9.98;100.00
9091;BME280;4581;42.416;25.598;2022-11-15T07:24:49;98998.31;;;9.98;100.00
9091;BME280;4581;42.416;25.598;2022-11-15T07:27:15;98987.41;;;10.08;100.00
9091;BME280;4581;42.416;25.598;2022-11-15T07:29:42;98985.56;;;10.08;100.00
9091;BME280;4581;42.416;25.598;2022-11-15T07:32:09;98990.28;;;10.06;100.00
9091;BME280;4581;42.416;25.598;2022-11-15T07:34:36;98987.91;;;10.11;100.00
9091;BME280;4581;42.416;25.598;2022-11-15T07:37:02;98990.56;;;10.03;100.00
9091;BME280;4581;42.416;25.598;2022-11-15T07:39:29;98990.31;;;10.14;100.00
9091;BME280;4581;42.416;25.598;2022-11-15T07:41:55;98979.53;;;10.14;100.00
9091;BME280;4581;42.416;25.598;2022-11-15T07:44:42;98981.59;;;10.20;100.00
9091;BME280;4581;42.416;25.598;2022-11-15T07:47:09;98985.00;;;10.22;100.00
9091;BME280;4581;42.416;25.598;2022-11-15T07:49:35;98987.53;;;10.32;100.00
9091;BME280;4581;42.416;25.598;2022-11-15T07:52:02;98989.56;;;10.30;100.00
9091;BME280;4581;42.416;25.598;2022-11-15T07:54:29;98989.38;;;10.31;100.00
9091;BME280;4581;42.416;25.598;2022-11-15T07:56:55;98994.28;;;10.36;100.00
9091;BME280;4581;42.416;25.598;2022-11-15T07:59:25;98989.56;;;10.30;100.00
9091;BME280;4581;42.416;25.598;2022-11-15T08:01:52;98990.72;;;10.27;100.00
9091;BME280;4581;42.416;25.598;2022-11-15T08:04:18;98988.19;;;10.26;100.00
9091;BME280;4581;42.416;25.598;2022-11-15T08:06:45;98987.06;;;10.37;100.00
9091;BME280;4581;42.416;25.598;2022-11-15T08:09:12;98987.41;;;10.42;100.00
9091;BME280;4581;42.416;25.598;2022-11-15T08:11:39;98993.63;;;10.34;100.00
9091;BME280;4581;42.416;25.598;2022-11-15T08:14:05;98989.25;;;10.33;100.00
9091;BME280;4581;42.416;25.598;2022-11-15T08:16:32;98990.13;;;10.42;100.00
9091;BME280;4581;42.416;25.598;2022-11-15T08:18:59;98985.06;;;10.39;100.00
9091;BME280;4581;42.416;25.598;2022-11-15T08:21:26;98990.47;;;10.47;100.00
9091;BME280;4581;42.416;25.598;2022-11-15T08:23:53;98988.09;;;10.44;100.00
9091;BME280;4581;42.416;25.598;2022-11-15T08:26:19;98993.16;;;10.47;100.00
9091;BME280;4581;42.416;25.598;2022-11-15T08:28:46;98985.06;;;10.39;100.00
9091;BME280;4581;42.416;25.598;2022-11-15T08:31:17;98985.19;;;10.29;100.00
9091;BME280;4581;42.416;25.598;2022-11-15T08:33:44;98981.81;;;10.27;100.00
9091;BME280;4581;42.416;25.598;2022-11-15T08:36:13;98981.28;;;10.23;100.00
9091;BME280;4581;42.416;25.598;2022-11-15T08:38:41;98986.38;;;10.35;100.00
9091;BME280;4581;42.416;25.598;2022-11-15T08:41:13;98982.34;;;10.30;100.00
9091;BME280;4581;42.416;25.598;2022-11-15T08:43:41;98977.63;;;10.41;100.00
9091;BME280;4581;42.416;25.598;2022-11-15T08:46:11;98973.28;;;10.48;100.00
9091;BME280;4581;42.416;25.598;2022-11-15T08:48:39;98972.44;;;10.55;100.00
9091;BME280;4581;42.416;25.598;2022-11-15T08:51:05;98976.34;;;10.61;100.00
9091;BME280;4581;42.416;25.598;2022-11-15T08:53:33;98967.63;;;10.67;100.00
9091;BME280;4581;42.416;25.598;2022-11-15T08:56:00;98966.25;;;10.63;99.09
9091;BME280;4581;42.416;25.598;2022-11-15T08:58:27;98966.59;;;10.68;99.93
9091;BME280;4581;42.416;25.598;2022-11-15T09:00:54;98965.94;;;10.74;99.88
9091;BME280;4581;42.416;25.598;2022-11-15T09:03:20;98951.63;;;10.82;98.97
9091;BME280;4581;42.416;25.598;2022-11-15T09:05:47;98960.56;;;10.90;98.72
9091;BME280;4581;42.416;25.598;2022-11-15T09:08:14;98955.00;;;10.92;97.77
9091;BME280;4581;42.416;25.598;2022-11-15T09:11:05;98954.81;;;10.85;97.00
9091;BME280;4581;42.416;25.598;2022-11-15T09:13:32;98948.25;;;10.88;97.29
9091;BME280;4581;42.416;25.598;2022-11-15T09:16:00;98939.84;;;10.91;96.95
9091;BME280;4581;42.416;25.598;2022-11-15T09:18:26;98933.25;;;10.93;97.16
9091;BME280;4581;42.416;25.598;2022-11-15T09:21:00;98932.25;;;11.02;97.52
9091;BME280;4581;42.416;25.598;2022-11-15T09:23:26;98925.66;;;11.05;97.14
9091;BME280;4581;42.416;25.598;2022-11-15T09:26:01;98928.72;;;11.10;97.56
9091;BME280;4581;42.416;25.598;2022-11-15T09:28:30;98924.47;;;11.07;96.85
9091;BME280;4581;42.416;25.598;2022-11-15T09:31:02;98923.47;;;11.08;95.72
9091;BME280;4581;42.416;25.598;2022-11-15T09:33:29;98918.75;;;10.94;95.10
9091;BME280;4581;42.416;25.598;2022-11-15T09:36:04;98922.31;;;10.87;96.59
9091;BME280;4581;42.416;25.598;2022-11-15T09:38:32;98912.88;;;10.91;97.69
9091;BME280;4581;42.416;25.598;2022-11-15T09:43:56;98902.22;;;10.89;98.51
9091;BME280;4581;42.416;25.598;2022-11-15T09:49:29;98900.38;;;10.90;97.51
9091;BME280;4581;42.416;25.598;2022-11-15T09:51:56;98888.09;;;10.79;98.25
9091;BME280;4581;42.416;25.598;2022-11-15T09:54:28;98891.78;;;10.86;98.15
9091;BME280;4581;42.416;25.598;2022-11-15T09:57:18;98886.53;;;10.93;97.81
9091;BME280;4581;42.416;25.598;2022-11-15T10:03:20;98883.34;;;11.05;96.29
9091;BME280;4581;42.416;25.598;2022-11-15T10:05:52;98872.38;;;11.07;96.58
9091;BME280;4581;42.416;25.598;2022-11-15T10:08:24;98874.75;;;11.02;97.67
9091;BME280;4581;42.416;25.598;2022-11-15T10:11:01;98870.19;;;11.02;97.35
9091;BME280;4581;42.416;25.598;2022-11-15T10:13:50;98858.72;;;11.00;97.93
9091;BME280;4581;42.416;25.598;2022-11-15T10:16:45;98868.00;;;10.98;96.85
9091;BME280;4581;42.416;25.598;2022-11-15T10:22:12;98854.03;;;10.86;97.08
9091;BME280;4581;42.416;25.598;2022-11-15T10:24:44;98848.13;;;10.83;97.77
9091;BME280;4581;42.416;25.598;2022-11-15T10:27:14;98847.94;;;10.92;97.26
9091;BME280;4581;42.416;25.598;2022-11-15T10:29:48;98842.88;;;10.89;97.42
9091;BME280;4581;42.416;25.598;2022-11-15T10:32:18;98850.63;;;11.00;97.52
9091;BME280;4581;42.416;25.598;2022-11-15T10:34:47;98838.69;;;10.95;97.30
9091;BME280;4581;42.416;25.598;2022-11-15T10:37:14;98839.19;;;10.98;96.79
9091;BME280;4581;42.416;25.598;2022-11-15T10:39:41;98825.34;;;10.85;96.41
9091;BME280;4581;42.416;25.598;2022-11-15T10:42:28;98829.75;;;10.86;97.54
9091;BME280;4581;42.416;25.598;2022-11-15T10:44:55;98829.56;;;10.96;97.51
9091;BME280;4581;42.416;25.598;2022-11-15T10:47:31;98824.34;;;10.86;98.45
9091;BME280;4581;42.416;25.598;2022-11-15T10:50:27;98817.59;;;10.90;97.55
9091;BME280;4581;42.416;25.598;2022-11-15T10:52:55;98816.41;;;10.93;98.23
9091;BME280;4581;42.416;25.598;2022-11-15T10:55:25;98825.19;;;10.95;97.73
9091;BME280;4581;42.416;25.598;2022-11-15T10:57:55;98818.94;;;10.94;96.72
9091;BME280;4581;42.416;25.598;2022-11-15T11:00:31;98813.56;;;10.86;96.92
9091;BME280;4581;42.416;25.598;2022-11-15T11:05:38;98813.06;;;10.91;97.87
9091;BME280;4581;42.416;25.598;2022-11-15T11:10:37;98805.47;;;10.94;97.37
9091;BME280;4581;42.416;25.598;2022-11-15T11:18:49;98792.84;;;10.87;98.00
9091;BME280;4581;42.416;25.598;2022-11-15T11:21:39;98791.78;;;10.88;97.16
9091;BME280;4581;42.416;25.598;2022-11-15T11:32:34;98776.41;;;11.12;96.82
9091;BME280;4581;42.416;25.598;2022-11-15T11:35:13;98776.25;;;11.14;95.29
9091;BME280;4581;42.416;25.598;2022-11-15T11:37:54;98780.47;;;11.08;95.07
9091;BME280;4581;42.416;25.598;2022-11-15T11:43:32;98763.75;;;11.13;95.81
9091;BME280;4581;42.416;25.598;2022-11-15T11:49:23;98762.53;;;11.23;94.77
9091;BME280;4581;42.416;25.598;2022-11-15T11:52:02;98760.38;;;11.19;94.71
9091;BME280;4581;42.416;25.598;2022-11-15T11:54:32;98760.19;;;11.20;94.89
9091;BME280;4581;42.416;25.598;2022-11-15T11:57:05;98756.47;;;11.30;94.43
9091;BME280;4581;42.416;25.598;2022-11-15T11:59:51;98758.66;;;11.26;95.44
9091;BME280;4581;42.416;25.598;2022-11-15T12:02:39;98743.13;;;11.28;94.92
9091;BME280;4581;42.416;25.598;2022-11-15T12:05:13;98737.53;;;11.38;93.84
9091;BME280;4581;42.416;25.598;2022-11-15T12:07:44;98731.81;;;11.33;94.38
9091;BME280;4581;42.416;25.598;2022-11-15T12:10:20;98735.72;;;11.30;92.87
9091;BME280;4581;42.416;25.598;2022-11-15T12:13:09;98734.56;;;11.16;93.26
9091;BME280;4581;42.416;25.598;2022-11-15T12:15:57;98728.31;;;11.16;95.20
9091;BME280;4581;42.416;25.598;2022-11-15T12:18:30;98726.47;;;11.16;93.91
9091;BME280;4581;42.416;25.598;2022-11-15T12:21:06;98719.22;;;11.17;93.83
9091;BME280;4581;42.416;25.598;2022-11-15T12:23:44;98715.66;;;11.24;93.15
9091;BME280;4581;42.416;25.598;2022-11-15T12:26:22;98709.09;;;11.19;93.34
9091;BME280;4581;42.416;25.598;2022-11-15T12:28:54;98708.41;;;11.25;93.63
9091;BME280;4581;42.416;25.598;2022-11-15T12:36:53;98693.53;;;11.29;92.24
9091;BME280;4581;42.416;25.598;2022-11-15T12:39:20;98694.22;;;11.31;91.01
9091;BME280;4581;42.416;25.598;2022-11-15T13:04:54;98677.69;;;11.26;89.63
9091;BME280;4581;42.416;25.598;2022-11-15T13:12:59;98685.59;;;11.27;89.70
9091;BME280;4581;42.416;25.598;2022-11-15T13:15:51;98676.72;;;11.19;89.69
9091;BME280;4581;42.416;25.598;2022-11-15T13:18:29;98675.88;;;11.18;89.59
9091;BME280;4581;42.416;25.598;2022-11-15T13:20:57;98672.31;;;11.26;89.93
9091;BME280;4581;42.416;25.598;2022-11-15T13:23:28;98673.94;;;11.35;88.80
9091;BME280;4581;42.416;25.598;2022-11-15T13:26:13;98671.25;;;11.35;88.66
9091;BME280;4581;42.416;25.598;2022-11-15T13:28:47;98655.91;;;11.27;89.67
9091;BME280;4581;42.416;25.598;2022-11-15T13:31:23;98662.47;;;11.33;90.32
9091;BME280;4581;42.416;25.598;2022-11-15T13:33:52;98651.84;;;11.32;90.19
9091;BME280;4581;42.416;25.598;2022-11-15T13:36:29;98653.00;;;11.37;89.39
9091;BME280;4581;42.416;25.598;2022-11-15T13:38:59;98664.28;;;11.41;86.88
9091;BME280;4581;42.416;25.598;2022-11-15T13:41:34;98650.41;;;11.44;86.56
9091;BME280;4581;42.416;25.598;2022-11-15T13:44:02;98662.25;;;11.43;86.45
9091;BME280;4581;42.416;25.598;2022-11-15T13:46:33;98659.19;;;11.46;85.01
9091;BME280;4581;42.416;25.598;2022-11-15T13:49:04;98653.97;;;11.44;84.85
9091;BME280;4581;42.416;25.598;2022-11-15T13:54:19;98644.38;;;11.42;86.60
9091;BME280;4581;42.416;25.598;2022-11-15T13:57:12;98645.22;;;11.42;86.83
9091;BME280;4581;42.416;25.598;2022-11-15T13:59:45;98638.97;;;11.42;85.49
9091;BME280;4581;42.416;25.598;2022-11-15T14:02:18;98630.56;;;11.37;86.15
9091;BME280;4581;42.416;25.598;2022-11-15T14:04:55;98639.34;;;11.39;85.58
9091;BME280;4581;42.416;25.598;2022-11-15T14:07:25;98628.06;;;11.35;85.90
9091;BME280;4581;42.416;25.598;2022-11-15T14:09:52;98630.25;;;11.32;86.65
9091;BME280;4581;42.416;25.598;2022-11-15T14:12:49;98630.09;;;11.33;86.84
9091;BME280;4581;42.416;25.598;2022-11-15T14:15:35;98627.88;;;11.37;86.23
9091;BME280;4581;42.416;25.598;2022-11-15T14:18:03;98625.22;;;11.28;86.66
9091;BME280;4581;42.416;25.598;2022-11-15T14:20:36;98616.47;;;11.26;86.82
9091;BME280;4581;42.416;25.598;2022-11-15T14:23:17;98616.09;;;11.30;86.88
9091;BME280;4581;42.416;25.598;2022-11-15T14:25:57;98604.63;;;11.27;87.53
9091;BME280;4581;42.416;25.598;2022-11-15T14:30:52;98607.16;;;11.29;87.77
9091;BME280;4581;42.416;25.598;2022-11-15T14:33:23;98599.78;;;11.23;88.56
9091;BME280;4581;42.416;25.598;2022-11-15T14:35:51;98605.19;;;11.23;87.57
9091;BME280;4581;42.416;25.598;2022-11-15T14:38:18;98599.44;;;11.26;88.02
9091;BME280;4581;42.416;25.598;2022-11-15T14:40:45;98599.47;;;11.18;88.37
9091;BME280;4581;42.416;25.598;2022-11-15T14:43:12;98597.16;;;11.15;88.62
9091;BME280;4581;42.416;25.598;2022-11-15T14:45:39;98594.25;;;11.16;88.71
9091;BME280;4581;42.416;25.598;2022-11-15T14:48:06;98591.00;;;10.98;87.71
9091;BME280;4581;42.416;25.598;2022-11-15T14:50:34;98599.03;;;11.06;87.57
9091;BME280;4581;42.416;25.598;2022-11-15T14:53:01;98594.50;;;11.07;88.41
9091;BME280;4581;42.416;25.598;2022-11-15T14:55:31;98597.19;;;11.07;87.35
9091;BME280;4581;42.416;25.598;2022-11-15T14:57:58;98593.84;;;10.97;87.37
9091;BME280;4581;42.416;25.598;2022-11-15T15:00:25;98590.31;;;10.96;87.77
9091;BME280;4581;42.416;25.598;2022-11-15T15:02:59;98597.56;;;10.96;87.76
9091;BME280;4581;42.416;25.598;2022-11-15T15:05:33;98597.72;;;11.02;87.63
9091;BME280;4581;42.416;25.598;2022-11-15T15:08:01;98583.59;;;10.92;87.58
9091;BME280;4581;42.416;25.598;2022-11-15T15:10:32;98597.13;;;10.84;88.20
9091;BME280;4581;42.416;25.598;2022-11-15T15:13:19;98586.13;;;10.94;89.58